RUC335 SVSA-SVBM
Flight info
| Callsign | RUC335 |
|---|---|
| Flight time | 0h 38m |
| Altitude | 29000 |
| Route | LFA1A LFA UW8 VRA/N0404F230 W8 GELEM DCT BRM |
| Aircraft | B737/M-SDE2E3FGHIRWXY/LB1 |
Departure
| Time | 2026-04-20 01:52 |
|---|---|
| Airport | Juan Vicente Gómez International Airport (SVSA) |
Arrival
| Time | 2026-04-20 02:30 |
|---|---|
| Airport | Jacinto Lara International Airport (SVBM) |
| Time | Latitude | Longitude | Altitude | Speed | Heading |
|---|---|---|---|---|---|
| 2026-04-20 00:40 | 7.83894 | -72.43990 | 1279 ft | 0 kts | 253° |
| 2026-04-20 01:42 | 7.83894 | -72.43989 | 1279 ft | 1 kts | 253° |
| 2026-04-20 01:42 | 7.83899 | -72.43974 | 1279 ft | 3 kts | 244° |
| 2026-04-20 01:43 | 7.83909 | -72.43957 | 1280 ft | 3 kts | 224° |
| 2026-04-20 01:43 | 7.83925 | -72.43946 | 1279 ft | 3 kts | 186° |
| 2026-04-20 01:43 | 7.83935 | -72.43946 | 1279 ft | 0 kts | 165° |
| 2026-04-20 01:48 | 7.83920 | -72.43942 | 1280 ft | 5 kts | 164° |
| 2026-04-20 01:48 | 7.83912 | -72.43939 | 1280 ft | 1 kts | 163° |
| 2026-04-20 01:49 | 7.83898 | -72.43936 | 1281 ft | 3 kts | 166° |
| 2026-04-20 01:49 | 7.83857 | -72.43926 | 1286 ft | 9 kts | 165° |
| 2026-04-20 01:49 | 7.83774 | -72.43903 | 1288 ft | 15 kts | 164° |
| 2026-04-20 01:49 | 7.83649 | -72.43868 | 1293 ft | 22 kts | 164° |
| 2026-04-20 01:50 | 7.83515 | -72.43830 | 1301 ft | 16 kts | 164° |
| 2026-04-20 01:50 | 7.83444 | -72.43810 | 1306 ft | 8 kts | 164° |
| 2026-04-20 01:50 | 7.83324 | -72.43776 | 1312 ft | 18 kts | 165° |
| 2026-04-20 01:50 | 7.83277 | -72.43768 | 1314 ft | 1 kts | 117° |
| 2026-04-20 01:51 | 7.83287 | -72.43767 | 1314 ft | 1 kts | 356° |
| 2026-04-20 01:51 | 7.83487 | -72.43822 | 1303 ft | 70 kts | 344° |
| 2026-04-20 01:51 | 7.84215 | -72.44023 | 1265 ft | 144 kts | 345° |
| 2026-04-20 01:51 | 7.85312 | -72.44326 | 1686 ft | 168 kts | 345° |
| 2026-04-20 01:52 | 7.86428 | -72.44646 | 2642 ft | 162 kts | 345° |
| 2026-04-20 01:52 | 7.87492 | -72.44943 | 3543 ft | 163 kts | 345° |
| 2026-04-20 01:52 | 7.88697 | -72.45278 | 3893 ft | 197 kts | 345° |
| 2026-04-20 01:52 | 7.90118 | -72.45672 | 4152 ft | 227 kts | 345° |
| 2026-04-20 01:53 | 7.91723 | -72.46113 | 4519 ft | 246 kts | 345° |
| 2026-04-20 01:53 | 7.93469 | -72.46607 | 4815 ft | 271 kts | 345° |
| 2026-04-20 01:53 | 7.95296 | -72.47122 | 5776 ft | 274 kts | 344° |
| 2026-04-20 01:53 | 7.97154 | -72.47619 | 6812 ft | 277 kts | 352° |
| 2026-04-20 01:54 | 7.99088 | -72.47549 | 7821 ft | 280 kts | 12° |
| 2026-04-20 01:54 | 8.00898 | -72.46803 | 8791 ft | 286 kts | 34° |
| 2026-04-20 01:54 | 8.02452 | -72.45580 | 9714 ft | 289 kts | 39° |
| 2026-04-20 01:54 | 8.03981 | -72.44181 | 10486 ft | 306 kts | 41° |
| 2026-04-20 01:55 | 8.05643 | -72.42685 | 10725 ft | 334 kts | 40° |
| 2026-04-20 01:55 | 8.07437 | -72.41110 | 11287 ft | 347 kts | 40° |
| 2026-04-20 01:55 | 8.09258 | -72.39504 | 12016 ft | 351 kts | 40° |
| 2026-04-20 01:55 | 8.11126 | -72.37888 | 12866 ft | 355 kts | 39° |
| 2026-04-20 01:56 | 8.12908 | -72.36149 | 13722 ft | 361 kts | 50° |
| 2026-04-20 01:56 | 8.14362 | -72.34077 | 14460 ft | 365 kts | 54° |
| 2026-04-20 01:56 | 8.15776 | -72.31914 | 15156 ft | 372 kts | 56° |
| 2026-04-20 01:56 | 8.17188 | -72.29710 | 15911 ft | 376 kts | 56° |
| 2026-04-20 01:57 | 8.18616 | -72.27481 | 16656 ft | 381 kts | 55° |
| 2026-04-20 01:57 | 8.20071 | -72.25226 | 17361 ft | 386 kts | 55° |
| 2026-04-20 01:57 | 8.21570 | -72.22949 | 18107 ft | 393 kts | 54° |
| 2026-04-20 01:57 | 8.23097 | -72.20641 | 18568 ft | 399 kts | 55° |
| 2026-04-20 01:58 | 8.24622 | -72.18356 | 19644 ft | 384 kts | 54° |
| 2026-04-20 01:58 | 8.26058 | -72.16119 | 20889 ft | 374 kts | 56° |
| 2026-04-20 01:58 | 8.27449 | -72.13948 | 22059 ft | 363 kts | 56° |
| 2026-04-20 01:58 | 8.28814 | -72.11850 | 23188 ft | 352 kts | 55° |
| 2026-04-20 01:59 | 8.30132 | -72.09841 | 24286 ft | 341 kts | 55° |
| 2026-04-20 01:59 | 8.31439 | -72.07855 | 25148 ft | 340 kts | 56° |
| 2026-04-20 01:59 | 8.32766 | -72.05842 | 25647 ft | 348 kts | 56° |
| 2026-04-20 01:59 | 8.34121 | -72.03784 | 26163 ft | 355 kts | 56° |
| 2026-04-20 02:00 | 8.35497 | -72.01694 | 26747 ft | 359 kts | 56° |
| 2026-04-20 02:00 | 8.36893 | -71.99574 | 27329 ft | 363 kts | 56° |
| 2026-04-20 02:00 | 8.38298 | -71.97437 | 27883 ft | 368 kts | 56° |
| 2026-04-20 02:00 | 8.39742 | -71.95242 | 28068 ft | 385 kts | 56° |
| 2026-04-20 02:01 | 8.41256 | -71.92937 | 28195 ft | 402 kts | 56° |
| 2026-04-20 02:01 | 8.42832 | -71.90538 | 28302 ft | 418 kts | 56° |
| 2026-04-20 02:01 | 8.44468 | -71.88048 | 28398 ft | 432 kts | 56° |
| 2026-04-20 02:01 | 8.46160 | -71.85471 | 28484 ft | 446 kts | 56° |
| 2026-04-20 02:02 | 8.47895 | -71.82830 | 28570 ft | 458 kts | 56° |
| 2026-04-20 02:02 | 8.49680 | -71.80109 | 28641 ft | 469 kts | 56° |
| 2026-04-20 02:02 | 8.53344 | -71.74524 | 28846 ft | 484 kts | 56° |
| 2026-04-20 02:03 | 8.55209 | -71.71681 | 29154 ft | 486 kts | 56° |
| 2026-04-20 02:03 | 8.57053 | -71.68869 | 29464 ft | 488 kts | 56° |
| 2026-04-20 02:03 | 8.58930 | -71.66008 | 29772 ft | 489 kts | 56° |
| 2026-04-20 02:03 | 8.60812 | -71.63136 | 30059 ft | 491 kts | 56° |
| 2026-04-20 02:04 | 8.62705 | -71.60248 | 30400 ft | 492 kts | 56° |
| 2026-04-20 02:04 | 8.64589 | -71.57372 | 30840 ft | 490 kts | 57° |
| 2026-04-20 02:04 | 8.66467 | -71.54506 | 31296 ft | 488 kts | 57° |
| 2026-04-20 02:04 | 8.68339 | -71.51646 | 31752 ft | 487 kts | 57° |
| 2026-04-20 02:05 | 8.70208 | -71.48793 | 32200 ft | 486 kts | 57° |
| 2026-04-20 02:05 | 8.72071 | -71.45950 | 32672 ft | 485 kts | 57° |
| 2026-04-20 02:05 | 8.73933 | -71.43106 | 32937 ft | 487 kts | 57° |
| 2026-04-20 02:05 | 8.75818 | -71.40224 | 32929 ft | 493 kts | 57° |
| 2026-04-20 02:06 | 8.78984 | -71.35384 | 32935 ft | 501 kts | 57° |
| 2026-04-20 02:06 | 8.82858 | -71.29458 | 32946 ft | 508 kts | 57° |
| 2026-04-20 02:07 | 8.86780 | -71.23460 | 32927 ft | 513 kts | 57° |
| 2026-04-20 02:07 | 8.90720 | -71.17432 | 32930 ft | 515 kts | 57° |
| 2026-04-20 02:08 | 8.94646 | -71.11421 | 32927 ft | 516 kts | 57° |
| 2026-04-20 02:08 | 8.98598 | -71.05369 | 32928 ft | 515 kts | 57° |
| 2026-04-20 02:09 | 9.02546 | -70.99316 | 32923 ft | 516 kts | 57° |
| 2026-04-20 02:09 | 9.06493 | -70.93262 | 32939 ft | 515 kts | 57° |
| 2026-04-20 02:10 | 9.10439 | -70.87207 | 32940 ft | 515 kts | 57° |
| 2026-04-20 02:10 | 9.14378 | -70.81162 | 32919 ft | 514 kts | 57° |
| 2026-04-20 02:11 | 9.18258 | -70.75205 | 32921 ft | 501 kts | 57° |
| 2026-04-20 02:11 | 9.22076 | -70.69339 | 32921 ft | 498 kts | 57° |
| 2026-04-20 02:12 | 9.25832 | -70.63565 | 32897 ft | 482 kts | 57° |
| 2026-04-20 02:12 | 9.27643 | -70.60782 | 32876 ft | 465 kts | 57° |
| 2026-04-20 02:12 | 9.29389 | -70.58099 | 32904 ft | 448 kts | 57° |
| 2026-04-20 02:13 | 9.31073 | -70.55508 | 32879 ft | 434 kts | 57° |
| 2026-04-20 02:13 | 9.32707 | -70.52997 | 32887 ft | 420 kts | 57° |
| 2026-04-20 02:13 | 9.34294 | -70.50558 | 32882 ft | 407 kts | 57° |
| 2026-04-20 02:13 | 9.35827 | -70.48198 | 32768 ft | 396 kts | 57° |
| 2026-04-20 02:14 | 9.37349 | -70.45852 | 31832 ft | 404 kts | 57° |
| 2026-04-20 02:14 | 9.38930 | -70.43415 | 30378 ft | 424 kts | 57° |
| 2026-04-20 02:14 | 9.40584 | -70.40866 | 28959 ft | 440 kts | 56° |
| 2026-04-20 02:14 | 9.42287 | -70.38245 | 27629 ft | 449 kts | 56° |
| 2026-04-20 02:15 | 9.44007 | -70.35594 | 26559 ft | 448 kts | 56° |
| 2026-04-20 02:15 | 9.45704 | -70.32978 | 25755 ft | 439 kts | 56° |
| 2026-04-20 02:15 | 9.47360 | -70.30426 | 25017 ft | 428 kts | 56° |
| 2026-04-20 02:15 | 9.48973 | -70.27937 | 24229 ft | 419 kts | 56° |
| 2026-04-20 02:16 | 9.50542 | -70.25519 | 23403 ft | 412 kts | 55° |
| 2026-04-20 02:16 | 9.52100 | -70.23115 | 22597 ft | 404 kts | 55° |
| 2026-04-20 02:16 | 9.53622 | -70.20767 | 21987 ft | 392 kts | 55° |
| 2026-04-20 02:16 | 9.55092 | -70.18489 | 21376 ft | 380 kts | 55° |
| 2026-04-20 02:17 | 9.56526 | -70.16278 | 20836 ft | 371 kts | 55° |
| 2026-04-20 02:17 | 9.57931 | -70.14113 | 20307 ft | 366 kts | 55° |
| 2026-04-20 02:17 | 9.59332 | -70.11954 | 19772 ft | 368 kts | 54° |
| 2026-04-20 02:17 | 9.60760 | -70.09753 | 19235 ft | 380 kts | 54° |
| 2026-04-20 02:18 | 9.62223 | -70.07498 | 18677 ft | 384 kts | 54° |
| 2026-04-20 02:18 | 9.63677 | -70.05249 | 18086 ft | 380 kts | 54° |
| 2026-04-20 02:18 | 9.65117 | -70.03022 | 17527 ft | 375 kts | 55° |
| 2026-04-20 02:18 | 9.66542 | -70.00817 | 16962 ft | 371 kts | 54° |
| 2026-04-20 02:19 | 9.67951 | -69.98644 | 16411 ft | 367 kts | 54° |
| 2026-04-20 02:19 | 9.69327 | -69.96518 | 15875 ft | 363 kts | 54° |
| 2026-04-20 02:19 | 9.70723 | -69.94363 | 15325 ft | 357 kts | 55° |
| 2026-04-20 02:19 | 9.72224 | -69.92403 | 15083 ft | 345 kts | 46° |
| 2026-04-20 02:20 | 9.73898 | -69.90673 | 14381 ft | 348 kts | 42° |
| 2026-04-20 02:20 | 9.75643 | -69.88991 | 13805 ft | 346 kts | 42° |
| 2026-04-20 02:20 | 9.77378 | -69.87319 | 13264 ft | 341 kts | 42° |
| 2026-04-20 02:20 | 9.79079 | -69.85648 | 12707 ft | 340 kts | 43° |
| 2026-04-20 02:21 | 9.82424 | -69.82275 | 11610 ft | 337 kts | 44° |
| 2026-04-20 02:21 | 9.84065 | -69.80612 | 11073 ft | 334 kts | 44° |
| 2026-04-20 02:21 | 9.85634 | -69.78933 | 10967 ft | 319 kts | 52° |
| 2026-04-20 02:22 | 9.86680 | -69.76961 | 10565 ft | 315 kts | 65° |
| 2026-04-20 02:22 | 9.87535 | -69.74954 | 10184 ft | 311 kts | 66° |
| 2026-04-20 02:22 | 9.88380 | -69.72936 | 9901 ft | 303 kts | 66° |
| 2026-04-20 02:22 | 9.89180 | -69.71041 | 9880 ft | 287 kts | 65° |
| 2026-04-20 02:23 | 9.89959 | -69.69213 | 9476 ft | 279 kts | 65° |
| 2026-04-20 02:23 | 9.90730 | -69.67421 | 8858 ft | 279 kts | 65° |
| 2026-04-20 02:23 | 9.91502 | -69.65635 | 8442 ft | 275 kts | 65° |
| 2026-04-20 02:23 | 9.92275 | -69.63853 | 8079 ft | 273 kts | 65° |
| 2026-04-20 02:24 | 9.93036 | -69.62102 | 7739 ft | 273 kts | 65° |
| 2026-04-20 02:24 | 9.93818 | -69.60305 | 7397 ft | 277 kts | 65° |
| 2026-04-20 02:24 | 9.94573 | -69.58567 | 7285 ft | 260 kts | 64° |
| 2026-04-20 02:24 | 9.95563 | -69.57158 | 7110 ft | 236 kts | 41° |
| 2026-04-20 02:25 | 9.96786 | -69.56160 | 6971 ft | 216 kts | 35° |
| 2026-04-20 02:25 | 9.97994 | -69.55257 | 6405 ft | 217 kts | 34° |
| 2026-04-20 02:25 | 9.99212 | -69.54346 | 5975 ft | 211 kts | 35° |
| 2026-04-20 02:25 | 10.00375 | -69.53463 | 5656 ft | 206 kts | 36° |
| 2026-04-20 02:26 | 10.01462 | -69.52561 | 5367 ft | 202 kts | 52° |
| 2026-04-20 02:26 | 10.01878 | -69.51249 | 5133 ft | 191 kts | 83° |
| 2026-04-20 02:26 | 10.02065 | -69.49928 | 4833 ft | 189 kts | 79° |
| 2026-04-20 02:26 | 10.02271 | -69.48618 | 4543 ft | 186 kts | 80° |
| 2026-04-20 02:27 | 10.02469 | -69.47353 | 4249 ft | 180 kts | 81° |
| 2026-04-20 02:27 | 10.02662 | -69.46131 | 3995 ft | 169 kts | 81° |
| 2026-04-20 02:27 | 10.02840 | -69.44980 | 3723 ft | 160 kts | 81° |
| 2026-04-20 02:27 | 10.03016 | -69.43887 | 3518 ft | 153 kts | 81° |
| 2026-04-20 02:28 | 10.03176 | -69.42847 | 3300 ft | 148 kts | 81° |
| 2026-04-20 02:28 | 10.03335 | -69.41823 | 3073 ft | 144 kts | 81° |
| 2026-04-20 02:28 | 10.03489 | -69.40825 | 2871 ft | 144 kts | 81° |
| 2026-04-20 02:28 | 10.03645 | -69.39816 | 2681 ft | 145 kts | 82° |
| 2026-04-20 02:29 | 10.03799 | -69.38806 | 2440 ft | 143 kts | 82° |
| 2026-04-20 02:29 | 10.03950 | -69.37811 | 2218 ft | 142 kts | 81° |
| 2026-04-20 02:29 | 10.04100 | -69.36847 | 2043 ft | 135 kts | 82° |
| 2026-04-20 02:29 | 10.04223 | -69.36046 | 2035 ft | 88 kts | 81° |
| 2026-04-20 02:30 | 10.04292 | -69.35621 | 2033 ft | 45 kts | 80° |
| 2026-04-20 02:30 | 10.04343 | -69.35446 | 2033 ft | 16 kts | 35° |
| 2026-04-20 02:30 | 10.04428 | -69.35441 | 2033 ft | 10 kts | 351° |
| 2026-04-20 02:30 | 10.04482 | -69.35457 | 2033 ft | 6 kts | 322° |
| 2026-04-20 02:31 | 10.04492 | -69.35489 | 2033 ft | 9 kts | 262° |
| 2026-04-20 02:31 | 10.04476 | -69.35576 | 2033 ft | 11 kts | 259° |
| 2026-04-20 02:31 | 10.04467 | -69.35638 | 2033 ft | 7 kts | 261° |
| 2026-04-20 02:31 | 10.04463 | -69.35659 | 2033 ft | 1 kts | 260° |
| 2026-04-20 02:32 | 10.04456 | -69.35712 | 2033 ft | 11 kts | 264° |
| 2026-04-20 02:32 | 10.04440 | -69.35816 | 2033 ft | 18 kts | 261° |
| 2026-04-20 02:32 | 10.04472 | -69.35906 | 2033 ft | 9 kts | 351° |
| 2026-04-20 02:32 | 10.04502 | -69.35910 | 2033 ft | 0 kts | 349° |
| 2026-04-20 02:33 | 10.04511 | -69.35911 | 2033 ft | 4 kts | 350° |
| 2026-04-20 02:33 | 10.04532 | -69.35914 | 2033 ft | 0 kts | 351° |
| 2026-04-20 02:33 | 10.04536 | -69.35915 | 2033 ft | 0 kts | 351° |